Time;durP1;ratioP1;P1;durP2;ratioP2;P2;SDS_P1;SDS_P2;PMS_P1;PMS_P2;Temp;Humidity;BMP_temperature;BMP_pressure;BME280_temperature;BME280_humidity;BME280_pressure;Samples;Min_cycle;Max_cycle;Signal;HPM_P1;HPM_P2
2022/06/08 00:00:10;;;;;;;12.80;11.50;;;;;;;16.77;92.42;97483.79;108823;1281;22462;-83
2022/06/08 00:03:11;;;;;;;15.10;13.50;;;;;;;16.90;92.49;97483.72;108841;1282;22500;-84
2022/06/08 00:05:39;;;;;;;14.50;13.10;;;;;;;16.89;92.24;97491.73;108651;1282;22351;-85
2022/06/08 00:08:07;;;;;;;12.60;11.50;;;;;;;16.92;91.88;97489.13;108862;1282;23100;-86
2022/06/08 00:10:36;;;;;;;11.60;10.60;;;;;;;16.93;91.96;97492.11;108828;1283;22357;-87
2022/06/08 00:13:05;;;;;;;13.40;12.20;;;;;;;16.92;91.88;97493.75;108681;1283;22536;-85
2022/06/08 00:15:33;;;;;;;12.80;11.60;;;;;;;16.92;91.75;97492.48;108973;1283;22369;-88
2022/06/08 00:18:02;;;;;;;11.40;10.20;;;;;;;16.92;92.11;97494.90;108741;1283;23549;-87
2022/06/08 00:20:30;;;;;;;11.30;10.30;;;;;;;17.01;92.49;97500.33;108881;1282;22358;-89
2022/06/08 00:22:58;;;;;;;20.70;10.90;;;;;;;17.15;92.74;97500.13;108814;1283;22484;-87
2022/06/08 00:25:26;;;;;;;10.10;9.20;;;;;;;17.27;92.23;97495.36;108655;1283;22436;-90
2022/06/08 00:27:55;;;;;;;11.00;10.00;;;;;;;17.39;91.90;97491.30;108875;1283;22360;-92
2022/06/08 00:30:23;;;;;;;10.60;9.60;;;;;;;17.41;91.17;97487.47;108731;1283;22896;-90
2022/06/08 00:32:51;;;;;;;11.70;10.50;;;;;;;17.41;91.26;97479.77;108884;1282;22338;-91
2022/06/08 00:35:19;;;;;;;12.40;11.10;;;;;;;17.42;91.18;97462.58;108818;1282;22597;-84
2022/06/08 00:37:47;;;;;;;9.40;8.20;;;;;;;17.40;91.33;97456.47;108821;1282;22957;-85
2022/06/08 00:40:19;;;;;;;11.60;10.50;;;;;;;17.52;91.39;97468.34;108838;1282;22546;-87
2022/06/08 00:42:49;;;;;;;11.50;10.40;;;;;;;17.43;90.21;97473.13;108860;1282;22869;-85
2022/06/08 00:45:20;;;;;;;12.90;11.80;;;;;;;17.31;90.00;97471.67;108853;1282;22475;-86
2022/06/08 00:47:59;;;;;;;11.70;10.70;;;;;;;17.19;90.32;97467.18;108890;1282;22285;-84
2022/06/08 00:50:39;;;;;;;12.10;11.00;;;;;;;17.08;90.65;97459.14;108919;1282;22293;-85
2022/06/08 00:53:09;;;;;;;10.90;10.00;;;;;;;16.93;90.68;97460.48;108682;1283;22283;-84
2022/06/08 00:55:38;;;;;;;12.90;11.70;;;;;;;16.86;90.69;97462.54;108864;1282;22262;-85
2022/06/08 00:58:23;;;;;;;12.70;10.60;;;;;;;16.76;90.73;97467.58;108843;1282;22867;-85
2022/06/08 01:00:52;;;;;;;10.90;9.80;;;;;;;16.68;90.80;97473.03;108865;1282;22296;-84
2022/06/08 01:03:21;;;;;;;12.40;11.00;;;;;;;16.70;91.42;97476.66;108694;1283;23226;-85
2022/06/08 01:05:56;;;;;;;12.60;11.40;;;;;;;16.79;91.06;97478.10;108857;1282;22267;-85
2022/06/08 01:08:43;;;;;;;11.00;9.80;;;;;;;16.89;91.47;97478.73;108660;1283;22486;-85
2022/06/08 01:11:29;;;;;;;12.70;11.50;;;;;;;16.84;90.89;97480.63;108435;1283;22514;-84
2022/06/08 01:14:04;;;;;;;13.20;12.00;;;;;;;16.72;90.98;97477.65;108684;1283;22336;-85
2022/06/08 01:16:33;;;;;;;13.80;12.60;;;;;;;16.71;91.15;97475.44;108703;1282;22312;-84
2022/06/08 01:19:04;;;;;;;15.30;11.60;;;;;;;16.73;90.58;97474.10;108686;1282;22359;-85
2022/06/08 01:21:32;;;;;;;12.60;11.40;;;;;;;16.74;90.78;97475.69;108850;1282;22446;-84
2022/06/08 01:24:10;;;;;;;14.40;13.10;;;;;;;16.74;90.76;97473.10;108433;1285;22405;-86
2022/06/08 01:26:50;;;;;;;13.30;11.90;;;;;;;16.69;90.39;97475.54;108435;1285;22500;-85
2022/06/08 01:29:37;;;;;;;14.60;13.30;;;;;;;16.67;90.62;97477.36;108666;1284;22336;-84
2022/06/08 01:32:26;;;;;;;14.60;13.40;;;;;;;16.66;90.78;97475.52;108628;1284;22260;-90
2022/06/08 01:34:57;;;;;;;15.40;14.00;;;;;;;16.51;90.48;97478.40;108624;1284;22299;-88
2022/06/08 01:37:42;;;;;;;15.20;13.80;;;;;;;16.43;90.54;97471.59;108694;1283;22451;-88
2022/06/08 01:40:48;;;;;;;14.60;13.40;;;;;;;16.39;90.59;97468.61;108699;1283;22363;-86
2022/06/08 01:43:39;;;;;;;15.80;14.30;;;;;;;16.36;91.05;97461.84;108720;1284;22456;-88
2022/06/08 01:46:22;;;;;;;15.10;13.80;;;;;;;16.25;90.86;97459.21;108418;1285;22422;-87
2022/06/08 01:49:05;;;;;;;17.20;15.70;;;;;;;16.19;91.32;97452.60;108671;1285;22414;-89
2022/06/08 01:51:39;;;;;;;18.10;16.60;;;;;;;16.14;91.43;97438.48;108686;1284;22248;-90
2022/06/08 01:54:20;;;;;;;18.90;17.20;;;;;;;16.14;91.38;97432.76;108616;1285;22399;-87
2022/06/08 01:57:02;;;;;;;17.90;16.30;;;;;;;16.16;91.22;97437.22;108427;1285;22332;-90
2022/06/08 02:00:00;;;;;;;19.70;17.90;;;;;;;16.17;91.21;97433.82;108577;1285;22426;-88
2022/06/08 02:02:49;;;;;;;18.90;17.20;;;;;;;16.18;91.28;97417.31;108648;1284;22531;-86
2022/06/08 02:05:39;;;;;;;20.90;19.10;;;;;;;16.14;92.09;97399.43;108659;1284;22339;-86
2022/06/08 02:08:29;;;;;;;22.40;20.50;;;;;;;16.06;91.88;97399.27;108598;1285;22358;-86
2022/06/08 02:11:08;;;;;;;22.70;20.80;;;;;;;16.04;91.65;97406.68;108425;1285;22542;-86
2022/06/08 02:13:49;;;;;;;22.10;20.20;;;;;;;16.04;91.59;97417.64;108426;1285;22451;-84
2022/06/08 02:16:33;;;;;;;21.50;19.70;;;;;;;16.06;91.54;97419.88;108615;1283;22376;-88
2022/06/08 02:19:13;;;;;;;21.50;19.70;;;;;;;16.11;91.79;97413.72;108636;1283;22497;-86
2022/06/08 02:21:53;;;;;;;20.80;19.10;;;;;;;16.17;91.52;97424.11;108415;1285;22463;-87
2022/06/08 02:24:46;;;;;;;19.90;18.20;;;;;;;16.17;91.62;97436.31;108405;1285;23064;-87
2022/06/08 02:27:20;;;;;;;22.20;20.30;;;;;;;16.11;91.42;97439.95;108679;1284;22434;-87
2022/06/08 02:29:55;;;;;;;24.10;22.10;;;;;;;16.10;91.83;97443.27;108427;1284;22944;-88
2022/06/08 02:35:29;;;;;;;21.60;19.90;;;;;;;16.14;92.18;97422.73;108593;1285;22415;-88
2022/06/08 02:38:05;;;;;;;20.00;18.30;;;;;;;16.09;92.22;97417.39;108611;1284;22486;-87
2022/06/08 02:40:36;;;;;;;21.40;19.50;;;;;;;16.09;91.95;97416.77;108594;1285;22378;-88
2022/06/08 02:43:11;;;;;;;18.50;16.90;;;;;;;16.09;92.41;97414.20;108617;1285;22505;-86
2022/06/08 02:45:43;;;;;;;21.40;19.60;;;;;;;16.04;92.71;97406.77;108604;1284;22335;-87
2022/06/08 02:48:13;;;;;;;19.70;18.00;;;;;;;15.99;93.01;97400.25;108714;1284;22372;-85
2022/06/08 02:50:56;;;;;;;19.50;17.80;;;;;;;15.95;93.88;97396.10;108726;1284;23000;-88
2022/06/08 02:53:31;;;;;;;20.10;18.20;;;;;;;15.86;93.75;97389.75;108706;1284;22383;-87
2022/06/08 02:56:12;;;;;;;19.00;17.30;;;;;;;15.82;93.55;97388.30;108654;1284;23218;-86
2022/06/08 02:58:44;;;;;;;19.50;17.80;;;;;;;15.82;93.24;97400.63;108701;1284;22306;-86
2022/06/08 03:01:29;;;;;;;18.20;16.70;;;;;;;15.81;93.11;97403.02;108909;1284;22349;-87
2022/06/08 03:04:03;;;;;;;19.40;17.70;;;;;;;15.87;93.22;97397.45;108852;1284;22300;-87
2022/06/08 03:06:40;;;;;;;20.10;18.40;;;;;;;15.93;93.12;97397.83;108657;1284;22150;-88
2022/06/08 03:09:13;;;;;;;19.60;18.00;;;;;;;15.96;92.78;97399.16;108625;1284;22389;-88
2022/06/08 03:11:46;;;;;;;20.30;18.30;;;;;;;15.94;92.76;97397.94;108498;1283;22315;-88
2022/06/08 03:14:16;;;;;;;17.40;15.70;;;;;;;15.93;92.75;97395.73;108695;1283;22245;-88
2022/06/08 03:16:57;;;;;;;17.40;15.70;;;;;;;15.92;92.67;97399.83;108839;1283;23061;-86
2022/06/08 03:19:29;;;;;;;17.80;16.40;;;;;;;15.95;92.78;97396.51;108594;1283;23125;-88
2022/06/08 03:21:58;;;;;;;16.40;14.80;;;;;;;15.99;93.00;97395.98;108684;1283;23217;-87
2022/06/08 03:24:28;;;;;;;17.60;16.00;;;;;;;15.97;92.67;97407.67;108700;1283;22394;-87
2022/06/08 03:27:02;;;;;;;15.80;14.50;;;;;;;15.99;92.80;97419.11;108654;1283;23027;-87
2022/06/08 03:29:32;;;;;;;17.20;15.80;;;;;;;16.01;93.04;97421.35;108698;1283;22389;-86
2022/06/08 03:32:01;;;;;;;15.60;14.30;;;;;;;16.04;92.84;97422.52;108703;1283;22445;-87
2022/06/08 03:34:30;;;;;;;14.00;12.80;;;;;;;16.03;92.99;97427.30;108697;1283;22995;-87
2022/06/08 03:37:18;;;;;;;12.30;11.20;;;;;;;16.02;92.89;97425.26;108720;1283;23007;-89
2022/06/08 03:39:50;;;;;;;12.60;11.40;;;;;;;16.05;92.83;97422.61;108649;1283;22476;-87
2022/06/08 03:42:18;;;;;;;13.30;11.50;;;;;;;16.05;92.98;97419.92;108655;1283;23547;-89
2022/06/08 03:44:46;;;;;;;12.50;11.30;;;;;;;16.03;92.77;97420.96;108675;1284;22446;-88
2022/06/08 03:47:21;;;;;;;12.70;11.60;;;;;;;16.04;93.00;97421.52;108646;1285;22304;-90
2022/06/08 03:49:51;;;;;;;15.10;13.80;;;;;;;16.00;93.07;97418.92;108694;1283;22307;-90
2022/06/08 03:52:24;;;;;;;15.50;14.00;;;;;;;15.97;93.05;97412.46;108691;1284;22431;-89
2022/06/08 03:55:00;;;;;;;13.70;12.20;;;;;;;16.00;93.03;97418.67;108644;1284;22296;-85
2022/06/08 03:57:30;;;;;;;12.80;11.60;;;;;;;16.00;92.89;97419.63;108702;1283;22430;-85
2022/06/08 04:00:00;;;;;;;12.20;11.10;;;;;;;16.00;92.81;97425.29;108616;1284;22360;-84
2022/06/08 04:02:32;;;;;;;12.30;11.00;;;;;;;16.03;92.78;97425.98;108553;1283;22451;-87
2022/06/08 04:05:00;;;;;;;12.10;11.10;;;;;;;16.09;92.95;97432.08;108853;1282;22440;-84
2022/06/08 04:11:29;;;;;;;12.90;11.80;;;;;;;16.18;92.72;97438.59;108854;1282;22893;-88
2022/06/08 04:14:03;;;;;;;13.20;12.10;;;;;;;16.17;92.71;97439.87;108962;1282;22638;-88
2022/06/08 04:16:31;;;;;;;12.10;10.90;;;;;;;16.17;92.61;97443.55;108756;1283;22383;-87
2022/06/08 04:19:03;;;;;;;11.30;10.20;;;;;;;16.16;92.47;97443.04;108671;1283;22374;-88
2022/06/08 04:21:34;;;;;;;12.10;10.60;;;;;;;16.16;92.64;97444.67;108670;1283;22368;-88
2022/06/08 04:24:06;;;;;;;11.30;10.30;;;;;;;16.15;92.40;97447.04;108843;1283;23104;-87
2022/06/08 04:30:07;;;;;;;12.20;10.90;;;;;;;16.23;92.48;97437.34;108718;1283;22296;-86
2022/06/08 04:32:36;;;;;;;11.50;10.50;;;;;;;16.20;92.54;97442.30;108695;1283;22315;-88
2022/06/08 04:35:05;;;;;;;16.50;15.10;;;;;;;16.21;92.95;97439.69;108674;1283;23181;-85
2022/06/08 04:37:37;;;;;;;13.30;12.20;;;;;;;16.26;92.87;97436.09;108658;1283;22369;-87
2022/06/08 04:40:09;;;;;;;11.30;10.30;;;;;;;16.29;92.67;97438.66;108660;1283;22457;-85
2022/06/08 04:42:37;;;;;;;11.40;10.30;;;;;;;16.32;92.35;97445.52;108661;1283;22280;-87
2022/06/08 04:45:07;;;;;;;11.20;10.20;;;;;;;16.34;92.43;97443.30;108640;1284;22504;-88
2022/06/08 04:47:36;;;;;;;11.80;10.80;;;;;;;16.32;92.36;97448.85;108664;1282;22555;-86
2022/06/08 04:50:07;;;;;;;12.50;11.30;;;;;;;16.26;92.27;97446.34;108676;1283;22450;-89
2022/06/08 04:52:36;;;;;;;11.60;10.50;;;;;;;16.23;92.29;97448.20;108728;1283;22319;-90
2022/06/08 04:55:08;;;;;;;10.60;9.70;;;;;;;16.22;92.36;97445.30;108796;1283;22871;-89
2022/06/08 04:57:37;;;;;;;11.70;10.70;;;;;;;16.22;92.77;97438.09;108810;1283;22359;-89
2022/06/08 05:00:12;;;;;;;11.70;10.60;;;;;;;16.16;92.68;97429.08;108704;1283;22993;-89
2022/06/08 05:02:44;;;;;;;11.00;10.00;;;;;;;16.18;92.66;97425.71;108835;1283;23375;-89
2022/06/08 05:05:22;;;;;;;38.20;35.00;;;;;;;16.21;92.66;97429.69;108894;1283;22389;-92
2022/06/08 05:07:52;;;;;;;12.50;11.30;;;;;;;16.27;92.89;97431.00;108944;1283;23340;-91
2022/06/08 05:10:22;;;;;;;11.10;10.00;;;;;;;16.31;92.89;97433.96;108893;1283;22357;-90
2022/06/08 05:12:50;;;;;;;9.50;8.70;;;;;;;16.33;92.71;97437.30;108851;1282;22182;-88
2022/06/08 05:15:23;;;;;;;9.10;8.00;;;;;;;16.32;92.63;97434.80;108666;1283;23122;-88
2022/06/08 05:17:51;;;;;;;12.10;11.10;;;;;;;16.30;92.59;97436.21;108868;1282;22362;-89
2022/06/08 05:20:21;;;;;;;12.90;11.70;;;;;;;16.29;92.74;97449.61;108750;1283;22397;-90
2022/06/08 05:22:51;;;;;;;15.80;14.30;;;;;;;16.26;92.67;97457.30;108618;1283;23516;-90
2022/06/08 05:25:26;;;;;;;16.00;14.50;;;;;;;16.24;92.76;97462.77;108973;1283;22367;-91
2022/06/08 05:27:54;;;;;;;15.20;13.80;;;;;;;16.15;92.65;97464.77;108982;1283;22423;-93
2022/06/08 05:30:25;;;;;;;15.90;14.50;;;;;;;16.07;92.99;97467.11;108864;1283;22580;-92
2022/06/08 05:32:54;;;;;;;15.80;14.30;;;;;;;16.00;93.13;97474.66;108819;1283;22234;-93
2022/06/08 05:35:23;;;;;;;14.10;12.90;;;;;;;15.96;92.90;97481.67;108785;1283;22403;-93
2022/06/08 05:37:53;;;;;;;15.30;13.80;;;;;;;15.94;93.15;97479.16;108850;1283;22395;-91
2022/06/08 05:40:23;;;;;;;14.90;13.60;;;;;;;15.91;93.47;97476.34;108694;1283;22427;-92
2022/06/08 05:42:51;;;;;;;14.40;13.10;;;;;;;15.86;93.60;97480.62;108661;1283;22352;-90
2022/06/08 05:45:24;;;;;;;14.50;13.20;;;;;;;15.81;93.70;97479.39;108925;1283;22515;-88
2022/06/08 05:47:52;;;;;;;19.00;17.10;;;;;;;15.81;93.52;97472.78;109083;1283;23069;-91
2022/06/08 05:50:22;;;;;;;24.30;22.10;;;;;;;15.85;93.67;97472.23;108881;1283;23123;-92
2022/06/08 05:52:51;;;;;;;20.80;18.80;;;;;;;15.92;93.78;97472.89;108700;1283;22326;-91
2022/06/08 05:55:22;;;;;;;17.60;15.90;;;;;;;16.01;93.48;97463.67;108667;1283;22284;-92
2022/06/08 05:57:51;;;;;;;17.00;15.50;;;;;;;16.06;93.32;97457.36;108947;1283;22265;-91
2022/06/08 06:00:24;;;;;;;16.00;14.70;;;;;;;16.08;93.57;97448.66;108753;1283;22356;-88
2022/06/08 06:02:52;;;;;;;17.60;16.10;;;;;;;16.05;93.68;97447.63;108941;1271;22587;-90
2022/06/08 06:05:31;;;;;;;25.10;15.50;;;;;;;16.04;93.72;97454.58;109266;1270;22391;31
2022/06/08 06:08:03;;;;;;;13.80;12.50;;;;;;;16.01;93.70;97448.61;108298;1273;22487;-88
2022/06/08 06:10:37;;;;;;;11.60;10.60;;;;;;;15.97;93.63;97445.62;108667;1282;22448;-88
2022/06/08 06:13:06;;;;;;;10.10;9.10;;;;;;;15.94;93.68;97449.65;108661;1282;22832;-89
2022/06/08 06:15:59;;;;;;;12.20;9.30;;;;;;;15.91;93.67;97458.26;108736;1284;22398;-89
2022/06/08 06:18:29;;;;;;;10.30;9.30;;;;;;;15.91;93.78;97459.27;108674;1284;22807;-88
2022/06/08 06:21:17;;;;;;;9.80;8.70;;;;;;;15.89;93.72;97459.45;108725;1284;22284;-89
2022/06/08 06:24:14;;;;;;;11.90;9.90;;;;;;;15.92;93.50;97468.69;108522;1283;22497;-88
2022/06/08 06:27:05;;;;;;;12.80;11.70;;;;;;;15.93;93.69;97479.36;108496;1284;22960;-88
2022/06/08 06:29:54;;;;;;;12.40;11.20;;;;;;;15.99;94.11;97482.79;108463;1284;22476;-86
2022/06/08 06:32:42;;;;;;;11.40;9.90;;;;;;;16.06;94.32;97477.63;108655;1283;22349;-87
2022/06/08 06:35:26;;;;;;;9.90;8.90;;;;;;;16.12;93.85;97474.85;108448;1285;22477;-86
2022/06/08 06:38:00;;;;;;;9.80;8.50;;;;;;;16.08;93.62;97471.71;109052;1284;22462;-88
2022/06/08 06:40:32;;;;;;;11.70;9.50;;;;;;;16.10;93.80;97471.00;108590;1283;22396;-89
2022/06/08 06:43:01;;;;;;;10.10;9.10;;;;;;;16.14;93.69;97478.00;108750;1284;23079;-87
2022/06/08 06:45:49;;;;;;;9.80;8.80;;;;;;;16.23;94.47;97478.55;108605;1284;22271;-88
2022/06/08 06:48:52;;;;;;;9.00;8.10;;;;;;;16.45;95.18;97472.58;108497;1284;22426;-88
2022/06/08 06:51:20;;;;;;;10.30;9.40;;;;;;;16.54;93.90;97458.11;108682;1284;22360;-87
2022/06/08 06:53:48;;;;;;;10.40;9.50;;;;;;;16.49;93.75;97440.91;108681;1284;22252;-87
2022/06/08 06:56:19;;;;;;;10.40;9.50;;;;;;;16.40;94.19;97425.81;108554;1284;22481;-86
2022/06/08 06:58:59;;;;;;;9.70;8.70;;;;;;;16.27;94.30;97415.93;108554;1284;22324;-86
2022/06/08 07:01:29;;;;;;;10.20;8.90;;;;;;;16.24;94.35;97405.45;108376;1284;22305;-86
2022/06/08 07:03:58;;;;;;;9.10;8.20;;;;;;;16.29;94.80;97409.69;108540;1284;22347;-88
2022/06/08 07:06:25;;;;;;;8.90;8.00;;;;;;;16.29;94.67;97411.48;108595;1285;22476;-87
2022/06/08 07:08:53;;;;;;;10.00;7.60;;;;;;;16.33;94.75;97417.27;108538;1284;23041;-87
2022/06/08 07:11:35;;;;;;;8.70;7.80;;;;;;;16.42;95.00;97426.83;108538;1284;22440;-91
2022/06/08 07:14:17;;;;;;;10.70;7.90;;;;;;;16.61;95.41;97432.28;108504;1284;22619;-88
2022/06/08 07:16:49;;;;;;;9.10;7.20;;;;;;;16.81;95.08;97433.59;108529;1284;22304;-90
2022/06/08 07:19:22;;;;;;;7.30;6.60;;;;;;;16.94;94.75;97440.13;108432;1284;22451;-88
2022/06/08 07:21:50;;;;;;;7.50;6.40;;;;;;;17.05;94.48;97446.92;108441;1283;22394;-87
2022/06/08 07:24:24;;;;;;;7.70;6.90;;;;;;;17.09;94.09;97446.61;108620;1284;23104;-88
2022/06/08 07:26:52;;;;;;;8.50;7.60;;;;;;;17.13;94.22;97446.34;108674;1284;22395;-87
2022/06/08 07:29:20;;;;;;;7.90;7.10;;;;;;;17.19;94.14;97443.46;108705;1283;22385;-85
2022/06/08 07:31:47;;;;;;;7.00;6.30;;;;;;;17.24;93.97;97438.67;108424;1285;22381;-87
2022/06/08 07:34:16;;;;;;;5.90;5.20;;;;;;;17.25;93.69;97436.13;108625;1285;22373;-88
2022/06/08 07:36:44;;;;;;;7.50;6.20;;;;;;;17.31;93.83;97440.85;108659;1284;22393;-86
2022/06/08 07:39:15;;;;;;;6.90;6.20;;;;;;;17.33;93.57;97445.58;108682;1284;23199;-85
2022/06/08 07:41:44;;;;;;;5.80;5.20;;;;;;;17.35;93.54;97440.48;108651;1283;22409;-84
2022/06/08 07:44:12;;;;;;;5.70;5.20;;;;;;;17.42;94.08;97443.05;108617;1283;23123;-85
2022/06/08 07:46:40;;;;;;;5.10;4.60;;;;;;;17.55;93.88;97448.64;108694;1283;22406;-83
2022/06/08 07:51:58;;;;;;;5.40;4.30;;;;;;;17.75;93.39;97448.99;108580;1284;22417;-85
2022/06/08 07:54:28;;;;;;;4.70;4.10;;;;;;;17.70;92.51;97446.39;108636;1285;22305;-85
2022/06/08 07:56:56;;;;;;;6.60;5.90;;;;;;;17.52;91.90;97446.38;108304;1285;22315;-85
2022/06/08 07:59:29;;;;;;;5.60;4.40;;;;;;;17.35;92.12;97447.09;108638;1285;22404;-86
2022/06/08 08:02:00;;;;;;;6.50;4.70;;;;;;;17.25;92.20;97451.21;108667;1284;22660;-89
2022/06/08 08:04:28;;;;;;;4.90;4.50;;;;;;;17.25;92.17;97456.42;108432;1284;22419;-88
2022/06/08 08:06:56;;;;;;;5.60;5.10;;;;;;;17.14;91.76;97456.25;108656;1285;23313;-86
2022/06/08 08:09:24;;;;;;;6.30;5.10;;;;;;;17.10;92.08;97460.41;108570;1284;22517;-86
2022/06/08 08:11:54;;;;;;;5.60;4.90;;;;;;;17.10;92.20;97471.02;108702;1283;22375;-87
2022/06/08 08:14:24;;;;;;;5.80;5.20;;;;;;;17.10;91.81;97473.72;108768;1284;22278;-88
2022/06/08 08:16:54;;;;;;;5.70;5.00;;;;;;;17.06;91.89;97469.59;108698;1284;22378;-87
2022/06/08 08:19:25;;;;;;;6.70;4.60;;;;;;;17.01;92.05;97478.72;108609;1283;22484;-88
2022/06/08 08:21:53;;;;;;;5.40;4.80;;;;;;;17.02;92.24;97484.88;108673;1284;22514;-87
2022/06/08 08:24:22;;;;;;;5.40;4.60;;;;;;;17.10;92.63;97495.49;108662;1285;22300;-87
2022/06/08 08:26:51;;;;;;;4.80;4.40;;;;;;;17.18;92.46;97501.37;108801;1283;22921;-86
2022/06/08 08:29:19;;;;;;;4.80;4.30;;;;;;;17.21;92.36;97509.40;108735;1284;22437;-87
2022/06/08 08:31:47;;;;;;;4.80;4.30;;;;;;;17.28;92.38;97513.98;108661;1284;22381;-88
2022/06/08 08:34:16;;;;;;;4.90;4.00;;;;;;;17.30;91.85;97515.20;108672;1284;22321;-87
2022/06/08 08:36:45;;;;;;;6.50;4.20;;;;;;;17.24;91.55;97520.05;108709;1283;22488;-87
2022/06/08 08:39:13;;;;;;;6.90;4.70;;;;;;;17.21;91.55;97521.05;108612;1285;23067;-87
2022/06/08 08:44:40;;;;;;;8.50;6.30;;;;;;;17.16;91.56;97535.48;108642;1283;22360;-87
2022/06/08 08:47:35;;;;;;;10.00;5.80;;;;;;;17.15;91.56;97536.00;108620;1284;22294;-86
2022/06/08 08:50:12;;;;;;;6.20;5.30;;;;;;;17.11;91.47;97539.40;108672;1283;22374;-86
2022/06/08 08:52:59;;;;;;;7.00;6.30;;;;;;;17.10;91.38;97538.66;108630;1284;22310;-88
2022/06/08 08:56:08;;;;;;;7.90;7.10;;;;;;;17.06;91.20;97534.99;108686;1284;23007;-88
2022/06/08 08:58:39;;;;;;;10.80;9.80;;;;;;;17.04;91.31;97528.42;108029;1290;22519;-86
2022/06/08 09:01:23;;;;;;;10.80;9.80;;;;;;;16.99;91.30;97520.90;108152;1289;22448;-86
2022/06/08 09:04:02;;;;;;;10.10;9.20;;;;;;;16.91;91.39;97512.83;108050;1290;22482;-87
2022/06/08 09:06:34;;;;;;;9.30;8.40;;;;;;;16.81;91.52;97509.84;108035;1290;22501;-87
2022/06/08 09:09:12;;;;;;;11.00;9.70;;;;;;;16.75;91.57;97507.11;107930;1290;22586;-86
2022/06/08 09:11:44;;;;;;;9.40;8.30;;;;;;;16.78;91.73;97502.63;107913;1290;23174;-88
2022/06/08 09:15:00;;;;;;;9.10;8.30;;;;;;;16.78;91.96;97492.45;107682;1290;23218;-88
2022/06/08 09:17:56;;;;;;;8.20;7.40;;;;;;;16.77;92.59;97478.18;107735;1290;22427;-88
2022/06/08 09:20:32;;;;;;;6.80;5.80;;;;;;;16.71;92.58;97470.16;107960;1290;22435;-87
2022/06/08 09:23:26;;;;;;;6.60;5.70;;;;;;;16.69;92.82;97461.40;107959;1290;22333;-85
2022/06/08 09:26:15;;;;;;;6.10;5.50;;;;;;;16.74;92.97;97459.52;107832;1290;22671;-86
2022/06/08 09:28:43;;;;;;;6.10;5.50;;;;;;;16.74;93.08;97459.75;107969;1289;22624;-88
2022/06/08 09:31:33;;;;;;;6.70;5.50;;;;;;;16.75;93.31;97461.79;107577;1293;22674;-87
2022/06/08 09:34:13;;;;;;;6.10;5.50;;;;;;;16.84;93.34;97457.84;107670;1290;22281;-87
2022/06/08 09:36:42;;;;;;;6.20;5.60;;;;;;;16.89;93.21;97452.94;108508;1285;22389;-86
2022/06/08 09:39:14;;;;;;;7.00;6.20;;;;;;;17.01;93.42;97443.41;108587;1285;22364;-88
2022/06/08 09:41:53;;;;;;;6.60;6.00;;;;;;;17.10;93.41;97443.08;108644;1285;22414;-87
2022/06/08 09:44:28;;;;;;;7.50;6.60;;;;;;;17.20;93.33;97438.89;108360;1285;23084;-88
2022/06/08 09:52:47;;;;;;;6.00;5.40;;;;;;;17.78;93.11;97428.52;108639;1285;22373;-87
2022/06/08 09:55:14;;;;;;;7.20;6.00;;;;;;;17.94;92.86;97425.27;108664;1285;22349;-86
2022/06/08 09:57:51;;;;;;;5.80;5.30;;;;;;;18.01;92.55;97422.07;108587;1284;22444;-86
2022/06/08 10:00:32;;;;;;;5.90;5.30;;;;;;;18.13;92.72;97418.96;108628;1283;22414;-86
2022/06/08 10:03:19;;;;;;;6.10;4.80;;;;;;;18.31;92.72;97419.77;108633;1285;23053;-86
2022/06/08 10:06:04;;;;;;;6.00;5.40;;;;;;;18.48;91.86;97415.61;108591;1283;22372;-87
2022/06/08 10:08:41;;;;;;;5.10;4.60;;;;;;;18.61;91.53;97417.81;108639;1283;23196;-83
2022/06/08 10:11:37;;;;;;;5.30;4.50;;;;;;;18.79;92.53;97423.84;108686;1285;22486;-87
2022/06/08 10:14:30;;;;;;;4.10;3.50;;;;;;;19.31;93.40;97420.92;108341;1285;22388;-83
2022/06/08 10:17:19;;;;;;;5.80;4.20;;;;;;;19.86;93.25;97418.90;108583;1285;23039;-84
2022/06/08 10:20:12;;;;;;;7.50;3.90;;;;;;;20.36;92.10;97417.05;108319;1285;434742;-84
2022/06/08 10:22:47;;;;;;;5.30;4.10;;;;;;;20.65;90.66;97410.50;108406;1285;22328;-84
2022/06/08 10:25:38;;;;;;;5.10;3.70;;;;;;;20.74;88.70;97405.10;108587;1285;22440;-86
2022/06/08 10:28:22;;;;;;;6.20;3.90;;;;;;;20.74;87.70;97400.10;108370;1285;22416;-85
2022/06/08 10:31:03;;;;;;;5.40;4.10;;;;;;;20.81;87.73;97400.16;108434;1285;22554;-83
2022/06/08 10:33:40;;;;;;;3.90;3.50;;;;;;;20.75;85.46;97390.87;108585;1284;22354;-83
2022/06/08 10:36:10;;;;;;;4.10;3.60;;;;;;;20.67;86.02;97391.52;108394;1285;22733;-85
2022/06/08 10:38:44;;;;;;;4.00;3.60;;;;;;;20.65;84.25;97385.23;108572;1284;22403;-83
2022/06/08 10:42:39;;;;;;;4.00;3.60;;;;;;;20.55;85.19;97382.55;108552;1285;22992;-84
2022/06/08 10:44:03;;;;;;;6.30;3.80;;;;;;;20.45;83.27;97383.53;108586;1284;22433;-83
2022/06/08 10:46:44;;;;;;;4.40;3.00;;;;;;;20.27;83.48;97383.66;108562;1285;23139;-83
2022/06/08 10:49:41;;;;;;;4.50;3.90;;;;;;;20.27;84.74;97388.98;108619;1285;22455;-83
2022/06/08 10:52:19;;;;;;;4.60;3.40;;;;;;;20.42;85.81;97384.99;108574;1284;23129;-84
2022/06/08 10:55:26;;;;;;;4.60;3.40;;;;;;;20.61;85.61;97385.20;108563;1285;22413;-83
2022/06/08 10:58:07;;;;;;;5.10;3.20;;;;;;;20.81;85.35;97389.76;108451;1285;22356;-83
2022/06/08 11:00:41;;;;;;;5.90;3.50;;;;;;;20.95;84.16;97393.38;108551;1285;22280;-84
2022/06/08 11:03:21;;;;;;;;;;;;;;;21.02;83.23;97397.50;108642;1284;22381;-85
2022/06/08 11:05:50;;;;;;;3.90;3.10;;;;;;;21.04;83.88;97396.83;108587;1284;22253;-85
2022/06/08 11:08:21;;;;;;;4.50;3.20;;;;;;;21.04;83.64;97388.98;108611;1284;23026;-83
2022/06/08 11:10:54;;;;;;;3.50;3.20;;;;;;;21.06;83.78;97382.98;108793;1284;22384;-86
2022/06/08 11:13:24;;;;;;;3.10;2.80;;;;;;;21.06;83.02;97391.82;108599;1284;22188;-87
2022/06/08 11:16:18;;;;;;;2.90;2.60;;;;;;;21.00;81.54;97398.21;108398;1285;22375;-86
2022/06/08 11:18:56;;;;;;;5.10;2.80;;;;;;;20.89;81.57;97398.98;108605;1284;22221;-84
2022/06/08 11:21:37;;;;;;;3.20;2.90;;;;;;;20.93;82.48;97406.60;108609;1284;22282;-86
2022/06/08 11:24:18;;;;;;;3.20;2.90;;;;;;;20.98;82.22;97405.30;108683;1283;22365;-89
2022/06/08 11:26:53;;;;;;;4.80;2.60;;;;;;;20.97;81.57;97401.30;108691;1283;23125;-85
2022/06/08 11:29:21;;;;;;;3.80;3.30;;;;;;;21.03;81.68;97395.63;108719;1284;22390;-84
2022/06/08 11:31:53;;;;;;;6.10;3.70;;;;;;;21.04;81.30;97399.00;108691;1284;22309;-84
2022/06/08 11:34:21;;;;;;;4.10;3.70;;;;;;;21.16;81.41;97395.02;108651;1283;22390;-85
2022/06/08 11:37:01;;;;;;;5.40;3.00;;;;;;;21.21;79.31;97388.80;108622;1284;23301;-85
2022/06/08 11:39:53;;;;;;;5.70;3.50;;;;;;;21.27;79.89;97377.81;108432;1284;22356;-87
2022/06/08 11:42:24;;;;;;;6.80;3.80;;;;;;;21.35;78.49;97373.63;108676;1283;22427;-83
2022/06/08 11:45:13;;;;;;;3.30;2.90;;;;;;;21.34;77.94;97382.55;108684;1283;23038;-83
2022/06/08 11:48:13;;;;;;;3.40;3.10;;;;;;;21.28;78.97;97385.87;108653;1284;22396;-83
2022/06/08 11:50:48;;;;;;;5.10;3.30;;;;;;;21.48;79.33;97382.20;108637;1284;22306;-84
2022/06/08 11:53:31;;;;;;;3.40;2.90;;;;;;;21.73;79.66;97378.16;108608;1282;22380;-83
2022/06/08 11:56:29;;;;;;;2.90;2.70;;;;;;;22.09;79.18;97373.44;108664;1284;23187;-83
2022/06/08 11:59:03;;;;;;;8.60;3.40;;;;;;;22.36;76.17;97371.89;108695;1282;22398;-82
2022/06/08 12:01:42;;;;;;;6.80;3.20;;;;;;;22.32;76.03;97372.05;108680;1284;22260;-84
2022/06/08 12:04:16;;;;;;;4.90;3.10;;;;;;;22.39;77.15;97374.95;108591;1284;22399;-83
2022/06/08 12:06:45;;;;;;;5.40;3.40;;;;;;;22.63;77.04;97375.85;108627;1284;22492;-87
2022/06/08 12:09:18;;;;;;;5.70;3.40;;;;;;;22.80;74.58;97376.56;108585;1284;22445;-85
2022/06/08 12:11:54;;;;;;;4.10;3.60;;;;;;;23.07;74.23;97372.81;108671;1284;22169;-85
2022/06/08 12:14:31;;;;;;;4.30;3.20;;;;;;;22.89;73.11;97372.25;108597;1284;22521;-84
2022/06/08 12:17:00;;;;;;;4.30;3.30;;;;;;;22.73;74.30;97373.02;108655;1283;23122;-81